Upstream stations:
SHEF ID: DRBK1 ARKANSAS R AT DERBY, KS
STATION TYPE:
Regulating: Stage = 12.00, Flow = 24335
STAGE RIV-FLOW BAT-LOAD
ft cfs volt
Ccp-Rev Ccp-Rev Ccp-Rev
(US/Central)
02/26 00:00 1.26 252 12.57
02/26 01:00 1.26 252 12.49
02/26 02:00 1.27 257 12.49
02/26 03:00 1.29 267 12.49
02/26 04:00 1.31 277 12.49
02/26 05:00 1.31 277 12.41
02/26 06:00 1.30 272 12.41
02/26 07:00 1.29 267 12.41
02/26 08:00 1.28 262 12.41
02/26 09:00 1.26 252 12.49
02/26 10:00 1.26 252 12.57
02/26 11:00 1.28 262 13.21
02/26 12:00 1.31 277 13.29
02/26 13:00 1.34 293 13.29
02/26 14:00 1.32 283 13.29
02/26 15:00 1.30 272 13.21
02/26 16:00 1.29 267 13.21
02/26 17:00 1.29 267 13.05
02/26 18:00 1.29 267 12.89
02/26 19:00 1.31 277 12.81
02/26 20:00 1.31 277 12.73
02/26 21:00 1.30 272 12.65
02/26 22:00 1.30 272 12.65
02/26 23:00 1.31 277 12.57